Terminal Aerodrome Forecast
Issued by NWS

Home | Current Version | Previous Version | Text Only | Print | Product List | Glossary On
Versions: 1 2 3 4 5 6 7 8 9 10 11 12 13
696
FTUS46 KHNX 061017 AAA
TAFMER
TAF AMD
KMER 061017Z 0610/0706 00000KT 1/4SM FG OVC002
      TEMPO 0610/0614 1/2SM FG
     FM061900 30005KT 5SM BR SCT200
     FM070000 33007KT P6SM SKC=

USA.gov is the U.S. government's official web portal to all federal, state and local government web resources and services.